createdAt,value
2018-10-02T00:02:22.634Z,0.60
2018-10-02T00:04:52.014Z,0.50
2018-10-02T00:07:21.428Z,0.60
2018-10-02T00:09:50.864Z,0.50
2018-10-02T00:12:25.534Z,0.97
2018-10-02T00:14:55.016Z,0.70
2018-10-02T00:17:24.437Z,0.50
2018-10-02T00:19:53.743Z,0.60
2018-10-02T00:22:23.194Z,0.67
2018-10-02T00:24:52.510Z,0.40
2018-10-02T00:27:21.970Z,0.40
2018-10-02T00:29:51.417Z,0.53
2018-10-02T00:32:20.931Z,0.50
2018-10-02T00:34:50.323Z,0.90
2018-10-02T00:37:19.803Z,0.83
2018-10-02T00:39:49.081Z,1.17
2018-10-02T00:42:18.563Z,1.33
2018-10-02T00:44:48.031Z,0.53
2018-10-02T00:47:17.395Z,0.90
2018-10-02T00:49:46.857Z,0.60
2018-10-02T00:52:16.326Z,0.67
2018-10-02T00:54:45.892Z,0.53
2018-10-02T00:57:15.234Z,0.50
2018-10-02T00:59:44.757Z,0.60
2018-10-02T01:02:14.123Z,0.60
2018-10-02T01:04:43.503Z,1.37
2018-10-02T01:07:12.986Z,0.90
2018-10-02T01:09:42.282Z,0.90
2018-10-02T01:12:11.705Z,0.77
2018-10-02T01:14:41.135Z,0.40
2018-10-02T01:17:10.574Z,0.60
2018-10-02T01:19:39.922Z,1.30
2018-10-02T01:22:09.358Z,1.10
2018-10-02T01:24:38.730Z,0.60
2018-10-02T01:27:08.213Z,0.60
2018-10-02T01:29:37.546Z,0.73
2018-10-02T01:32:06.979Z,1.07
2018-10-02T01:34:36.304Z,0.70
2018-10-02T01:37:05.745Z,0.60
2018-10-02T01:39:35.068Z,0.67
2018-10-02T01:42:04.511Z,0.50
2018-10-02T01:44:33.917Z,0.40
2018-10-02T01:47:03.254Z,0.63
2018-10-02T01:49:32.658Z,0.70
2018-10-02T01:52:01.988Z,1.57
2018-10-02T01:54:31.398Z,0.73
2018-10-02T01:57:00.775Z,1.00
2018-10-02T01:59:30.231Z,1.00
2018-10-02T02:01:59.771Z,0.80
2018-10-02T02:04:29.174Z,1.23
2018-10-02T02:06:58.530Z,0.73
2018-10-02T02:09:27.949Z,1.03
2018-10-02T02:11:57.331Z,0.80
2018-10-02T02:14:26.794Z,0.47
2018-10-02T02:16:56.762Z,0.73
2018-10-02T02:19:26.179Z,0.47
2018-10-02T02:21:56.247Z,0.37
2018-10-02T02:24:26.589Z,0.83
2018-10-02T02:26:56.021Z,0.83
2018-10-02T02:29:25.541Z,0.83
2018-10-02T02:31:54.953Z,0.77
2018-10-02T02:34:24.333Z,0.60
2018-10-02T02:36:53.746Z,0.87
2018-10-02T02:39:23.147Z,0.60
2018-10-02T02:41:52.568Z,0.80
2018-10-02T02:44:21.970Z,0.50
2018-10-02T02:46:51.324Z,0.50
2018-10-02T02:49:25.942Z,0.50
2018-10-02T02:51:55.418Z,0.73
2018-10-02T02:54:24.806Z,0.60
2018-10-02T02:56:54.895Z,0.63
2018-10-02T02:59:24.346Z,0.93
2018-10-02T03:01:53.706Z,0.50
2018-10-02T03:04:23.165Z,0.73
2018-10-02T03:06:52.535Z,0.80
2018-10-02T03:09:21.926Z,0.93
2018-10-02T03:11:51.361Z,0.70
2018-10-02T03:14:20.723Z,0.73
2018-10-02T03:16:50.150Z,0.67
2018-10-02T03:19:19.549Z,0.53
2018-10-02T03:21:48.958Z,1.73
2018-10-02T03:24:18.405Z,0.83
2018-10-02T03:26:48.343Z,1.13
2018-10-02T03:29:17.678Z,0.73
2018-10-02T03:31:47.010Z,0.93
2018-10-02T03:34:16.369Z,0.70
2018-10-02T03:36:45.706Z,1.40
2018-10-02T03:39:15.103Z,0.70
2018-10-02T03:41:44.485Z,1.57
2018-10-02T03:44:13.915Z,0.50
2018-10-02T03:46:43.354Z,0.60
2018-10-02T03:49:12.687Z,0.87
2018-10-02T03:51:42.132Z,0.87
2018-10-02T03:54:11.646Z,1.03
2018-10-02T03:56:40.967Z,0.80
2018-10-02T03:59:10.399Z,0.63
2018-10-02T04:01:39.740Z,0.97
2018-10-02T04:04:09.162Z,1.40
2018-10-02T04:06:38.883Z,0.80
2018-10-02T04:09:10.990Z,1.13
2018-10-02T04:11:40.355Z,0.70
2018-10-02T04:14:10.653Z,0.63
2018-10-02T04:16:40.080Z,0.50
2018-10-02T04:19:09.441Z,1.37
2018-10-02T04:21:38.866Z,1.10
2018-10-02T04:24:09.154Z,1.27
2018-10-02T04:26:38.940Z,2.30
2018-10-02T04:29:08.526Z,0.83
2018-10-02T04:31:38.658Z,1.00
2018-10-02T04:34:08.066Z,0.70
2018-10-02T04:36:37.408Z,0.70
2018-10-02T04:39:09.326Z,0.80
2018-10-02T04:41:39.187Z,1.37
2018-10-02T04:44:08.603Z,1.87
2018-10-02T04:46:38.029Z,0.63
2018-10-02T04:49:07.397Z,0.77
2018-10-02T04:51:36.810Z,1.07
2018-10-02T04:54:06.367Z,1.27
2018-10-02T04:56:35.711Z,1.40
2018-10-02T04:59:05.068Z,0.70
2018-10-02T05:01:34.486Z,1.00
2018-10-02T05:04:03.926Z,0.87
2018-10-02T05:06:33.357Z,1.33
2018-10-02T05:09:02.736Z,1.10
2018-10-02T05:11:32.259Z,0.77
2018-10-02T05:14:01.749Z,0.70
2018-10-02T05:16:31.206Z,1.10
2018-10-02T05:19:00.727Z,0.80
2018-10-02T05:21:30.102Z,0.87
2018-10-02T05:23:59.660Z,0.50
2018-10-02T05:26:29.074Z,1.47
2018-10-02T05:28:58.426Z,0.63
2018-10-02T05:31:27.822Z,1.07
2018-10-02T05:33:57.211Z,0.90
2018-10-02T05:36:26.586Z,1.00
2018-10-02T05:38:55.986Z,0.87
2018-10-02T05:41:25.470Z,0.60
2018-10-02T05:43:54.838Z,0.77
2018-10-02T05:46:24.226Z,1.70
2018-10-02T05:48:53.685Z,0.57
2018-10-02T05:51:23.063Z,0.60
2018-10-02T05:53:52.547Z,0.77
2018-10-02T05:56:21.868Z,2.20
2018-10-02T05:58:51.270Z,0.50
2018-10-02T06:01:20.603Z,0.40
2018-10-02T06:03:50.063Z,1.07
2018-10-02T06:06:19.458Z,0.73
2018-10-02T06:08:48.946Z,0.60
2018-10-02T06:11:18.327Z,0.80
2018-10-02T06:13:47.810Z,1.07
2018-10-02T06:16:17.190Z,0.50
2018-10-02T06:18:46.554Z,1.07
2018-10-02T06:21:16.009Z,0.53
2018-10-02T06:23:45.385Z,0.90
2018-10-02T06:26:14.779Z,1.97
2018-10-02T06:28:44.146Z,0.90
2018-10-02T06:31:13.486Z,0.90
2018-10-02T06:33:42.930Z,0.87
2018-10-02T06:36:12.286Z,1.33
2018-10-02T06:38:41.796Z,0.90
2018-10-02T06:41:11.095Z,1.00
2018-10-02T06:43:40.527Z,0.80
2018-10-02T06:46:10.000Z,0.80
2018-10-02T06:48:39.356Z,1.60
2018-10-02T06:51:08.751Z,1.07
2018-10-02T06:53:38.155Z,0.70
2018-10-02T06:56:08.066Z,1.13
2018-10-02T06:58:37.458Z,0.70
2018-10-02T07:01:07.010Z,1.00
2018-10-02T07:03:36.489Z,0.97
2018-10-02T07:06:05.934Z,1.17
2018-10-02T07:08:35.322Z,1.07
2018-10-02T07:11:04.744Z,0.73
2018-10-02T07:13:34.139Z,2.20
2018-10-02T07:16:03.629Z,1.47
2018-10-02T07:18:33.140Z,1.43
2018-10-02T07:21:02.663Z,1.50
2018-10-02T07:23:32.023Z,1.43
2018-10-02T07:26:01.447Z,0.90
2018-10-02T07:28:30.799Z,1.20
2018-10-02T07:31:00.232Z,0.87
2018-10-02T07:33:29.622Z,1.70
2018-10-02T07:35:59.150Z,0.93
2018-10-02T07:38:28.736Z,1.10
2018-10-02T07:40:58.137Z,1.00
2018-10-02T07:43:27.924Z,1.07
2018-10-02T07:45:57.338Z,1.20
2018-10-02T07:48:26.813Z,0.97
2018-10-02T07:50:56.254Z,0.80
2018-10-02T07:53:25.673Z,1.10
2018-10-02T07:55:55.046Z,1.53
2018-10-02T07:58:24.581Z,0.90
2018-10-02T08:00:54.206Z,0.70
2018-10-02T08:03:24.086Z,0.97
2018-10-02T08:05:53.486Z,1.17
2018-10-02T08:08:22.888Z,0.90
2018-10-02T08:10:52.813Z,0.97
2018-10-02T08:13:22.253Z,1.07
2018-10-02T08:15:51.626Z,1.13
2018-10-02T08:18:21.021Z,1.40
2018-10-02T08:20:50.531Z,3.40
2018-10-02T08:23:19.957Z,1.23
2018-10-02T08:25:50.310Z,1.17
2018-10-02T08:28:21.273Z,0.80
2018-10-02T08:30:51.276Z,1.60
2018-10-02T08:33:20.878Z,1.53
2018-10-02T08:35:50.324Z,1.13
2018-10-02T08:38:19.623Z,2.63
2018-10-02T08:40:49.074Z,1.50
2018-10-02T08:43:18.540Z,1.70
2018-10-02T08:45:47.850Z,1.73
2018-10-02T08:48:17.234Z,1.90
2018-10-02T08:50:46.729Z,1.40
2018-10-02T08:53:16.055Z,1.67
2018-10-02T08:55:45.566Z,3.10
2018-10-02T08:58:15.078Z,1.83
2018-10-02T09:00:44.571Z,2.00
2018-10-02T09:03:13.892Z,2.13
2018-10-02T09:05:43.322Z,2.07
2018-10-02T09:08:12.703Z,3.00
2018-10-02T09:10:42.106Z,1.83
2018-10-02T09:13:12.111Z,1.60
2018-10-02T09:15:41.622Z,1.77
2018-10-02T09:18:11.004Z,2.20
2018-10-02T09:20:40.504Z,2.10
2018-10-02T09:23:09.885Z,2.07
2018-10-02T09:25:39.250Z,2.23
2018-10-02T09:28:08.851Z,3.27
2018-10-02T09:30:43.282Z,3.20
2018-10-02T09:33:17.752Z,1.90
2018-10-02T09:35:52.433Z,2.47
2018-10-02T09:38:26.887Z,2.23
2018-10-02T09:41:01.427Z,3.00
2018-10-02T09:43:39.253Z,2.27
2018-10-02T09:46:08.743Z,2.20
2018-10-02T09:48:38.244Z,2.17
2018-10-02T09:51:07.594Z,2.97
2018-10-02T09:53:37.048Z,2.80
2018-10-02T09:56:06.494Z,2.80
2018-10-02T09:58:35.930Z,2.50
2018-10-02T10:02:10.094Z,2.70
2018-10-02T10:04:39.537Z,3.27
2018-10-02T10:07:09.054Z,3.80
2018-10-02T10:09:38.516Z,3.10
2018-10-02T10:12:08.220Z,3.63
2018-10-02T10:14:37.694Z,3.23
2018-10-02T10:17:07.217Z,4.27
2018-10-02T10:19:36.600Z,4.10
2018-10-02T10:22:06.486Z,3.90
2018-10-02T10:24:35.876Z,5.00
2018-10-02T10:27:05.285Z,4.30
2018-10-02T10:29:34.687Z,4.63
2018-10-02T10:32:04.204Z,4.40
2018-10-02T10:34:33.604Z,4.37
2018-10-02T10:37:03.041Z,3.77
2018-10-02T10:39:32.419Z,5.00
2018-10-02T10:42:01.964Z,3.90
2018-10-02T10:44:31.358Z,4.67
2018-10-02T10:47:00.865Z,4.47
2018-10-02T10:49:30.227Z,4.93
2018-10-02T10:51:59.597Z,4.13
2018-10-02T10:54:29.035Z,5.20
2018-10-02T10:56:58.434Z,5.13
2018-10-02T10:59:27.878Z,4.57
2018-10-02T11:01:57.380Z,5.53
2018-10-02T11:04:26.926Z,5.60
2018-10-02T11:06:56.418Z,4.80
2018-10-02T11:09:25.985Z,6.20
2018-10-02T11:11:55.412Z,4.93
2018-10-02T11:14:24.785Z,4.67
2018-10-02T11:16:54.223Z,4.50
2018-10-02T11:19:23.644Z,4.47
2018-10-02T11:21:52.958Z,4.23
2018-10-02T11:24:22.402Z,5.67
2018-10-02T11:26:51.895Z,5.07
2018-10-02T11:29:21.280Z,5.63
2018-10-02T11:31:50.669Z,4.70
2018-10-02T11:34:20.045Z,4.93
2018-10-02T11:36:49.385Z,5.30
2018-10-02T11:39:18.886Z,4.30
2018-10-02T11:41:48.282Z,5.33
2018-10-02T11:44:17.790Z,4.27
2018-10-02T11:46:47.167Z,4.50
2018-10-02T11:49:16.584Z,3.80
2018-10-02T11:51:45.913Z,4.17
2018-10-02T11:54:15.394Z,4.83
2018-10-02T11:56:44.754Z,4.40
2018-10-02T11:59:14.185Z,4.10
2018-10-02T12:01:43.542Z,4.93
2018-10-02T12:04:13.005Z,4.50
2018-10-02T12:06:42.437Z,5.37
2018-10-02T12:09:11.828Z,5.37
2018-10-02T12:11:41.291Z,6.60
2018-10-02T12:14:10.698Z,6.07
2018-10-02T12:16:41.028Z,6.20
2018-10-02T12:19:10.411Z,5.67
2018-10-02T12:21:39.739Z,5.40
2018-10-02T12:24:09.163Z,5.63
2018-10-02T12:26:38.873Z,5.00
2018-10-02T12:29:08.265Z,4.53
2018-10-02T12:31:37.655Z,5.27
2018-10-02T12:34:07.358Z,3.83
2018-10-02T12:36:36.981Z,4.30
2018-10-02T12:39:08.225Z,5.40
2018-10-02T12:41:37.662Z,4.30
2018-10-02T12:44:07.075Z,5.67
2018-10-02T12:46:36.524Z,4.80
2018-10-02T12:49:06.071Z,4.63
2018-10-02T12:51:35.384Z,4.03
2018-10-02T12:54:04.810Z,4.70
2018-10-02T12:56:34.204Z,5.07
2018-10-02T12:59:03.630Z,4.43
2018-10-02T13:01:32.994Z,5.00
2018-10-02T13:04:02.482Z,4.07
2018-10-02T13:06:31.906Z,5.40
2018-10-02T13:09:01.314Z,4.83
2018-10-02T13:13:00.307Z,3.90
2018-10-02T13:15:29.726Z,5.00
2018-10-02T13:17:59.161Z,5.30
2018-10-02T13:20:28.636Z,6.00
2018-10-02T13:22:57.986Z,5.73
2018-10-02T13:25:27.503Z,6.00
2018-10-02T13:27:56.869Z,5.13
2018-10-02T13:30:26.294Z,4.50
2018-10-02T13:32:55.690Z,4.13
2018-10-02T13:35:25.115Z,5.70
2018-10-02T13:37:54.518Z,5.37
2018-10-02T13:40:23.854Z,4.87
2018-10-02T13:42:53.222Z,5.13
2018-10-02T13:45:22.618Z,6.23
2018-10-02T13:47:52.005Z,5.47
2018-10-02T13:50:21.438Z,4.57
2018-10-02T13:52:50.976Z,5.10
2018-10-02T13:55:20.598Z,5.17
2018-10-02T13:57:49.907Z,4.70
2018-10-02T14:00:19.642Z,5.10
2018-10-02T14:02:49.037Z,4.33
2018-10-02T14:05:18.489Z,4.37
2018-10-02T14:07:47.851Z,4.77
2018-10-02T14:10:17.285Z,4.30
2018-10-02T14:12:46.670Z,4.50
2018-10-02T14:15:16.108Z,3.90
2018-10-02T14:17:45.630Z,4.10
2018-10-02T14:20:14.999Z,3.10
2018-10-02T14:22:44.450Z,3.50
2018-10-02T14:25:13.906Z,3.63
2018-10-02T14:27:43.395Z,3.50
2018-10-02T14:30:12.895Z,3.30
2018-10-02T14:32:42.317Z,3.30
2018-10-02T14:35:11.687Z,4.40
2018-10-02T14:37:41.142Z,3.00
2018-10-02T14:40:10.608Z,3.30
2018-10-02T14:42:39.978Z,3.03
2018-10-02T14:45:09.459Z,3.33
2018-10-02T14:47:38.992Z,3.50
2018-10-02T14:50:08.487Z,3.70
2018-10-02T14:52:38.326Z,3.13
2018-10-02T14:55:07.330Z,2.87
2018-10-02T14:57:36.780Z,2.93
2018-10-02T15:00:06.446Z,2.70
2018-10-02T15:02:35.868Z,2.57
2018-10-02T15:05:05.362Z,2.50
2018-10-02T15:07:34.867Z,2.93
2018-10-02T15:10:04.581Z,2.50
2018-10-02T15:12:34.062Z,2.03
2018-10-02T15:15:03.595Z,1.07
2018-10-02T15:17:32.963Z,4.20
2018-10-02T15:20:02.392Z,1.03
2018-10-02T15:22:31.867Z,2.10
2018-10-02T15:25:01.250Z,1.47
2018-10-02T15:27:30.740Z,2.07
2018-10-02T15:30:00.173Z,2.40
2018-10-02T15:32:29.594Z,1.53
2018-10-02T15:34:58.950Z,1.83
2018-10-02T15:37:28.388Z,1.73
2018-10-02T15:39:57.910Z,1.63
2018-10-02T15:42:27.377Z,1.30
2018-10-02T15:44:56.834Z,2.33
2018-10-02T15:47:26.282Z,3.00
2018-10-02T15:49:55.723Z,3.40
2018-10-02T15:52:25.178Z,1.83
2018-10-02T15:54:54.749Z,2.10
2018-10-02T15:57:24.273Z,3.17
2018-10-02T15:59:53.731Z,2.60
2018-10-02T16:02:23.267Z,1.30
2018-10-02T16:04:52.638Z,3.03
2018-10-02T16:07:22.049Z,2.13
2018-10-02T16:09:52.485Z,2.77
2018-10-02T16:12:22.885Z,1.30
2018-10-02T16:17:31.025Z,0.73
2018-10-02T16:20:01.298Z,1.03
2018-10-02T16:22:30.747Z,1.37
2018-10-02T16:25:00.223Z,2.00
2018-10-02T16:27:29.546Z,1.30
2018-10-02T16:29:58.943Z,0.90
2018-10-02T16:32:28.922Z,0.83
2018-10-02T16:34:59.888Z,2.17
2018-10-02T16:37:30.182Z,1.90
2018-10-02T16:40:00.303Z,2.00
2018-10-02T16:42:30.822Z,1.63
2018-10-02T16:45:00.846Z,0.93
2018-10-02T16:47:32.271Z,2.00
2018-10-02T16:50:03.498Z,1.23
2018-10-02T16:55:30.033Z,1.50
2018-10-02T16:58:00.822Z,1.00
2018-10-02T17:00:30.842Z,1.70
2018-10-02T17:03:00.763Z,1.37
2018-10-02T17:05:31.591Z,1.43
2018-10-02T17:08:01.267Z,2.20
2018-10-02T17:10:31.125Z,2.07
2018-10-02T17:13:00.655Z,1.87
2018-10-02T17:15:30.723Z,1.73
2018-10-02T17:20:58.219Z,1.07
2018-10-02T17:23:27.694Z,1.23
2018-10-02T17:25:57.508Z,3.87
2018-10-02T17:28:26.897Z,2.10
2018-10-02T17:30:56.513Z,0.90
2018-10-02T17:33:27.055Z,2.10
2018-10-02T17:35:56.493Z,1.57
2018-10-02T17:38:25.962Z,1.17
2018-10-02T17:40:56.047Z,1.20
2018-10-02T17:43:28.512Z,3.50
2018-10-02T17:46:00.052Z,1.60
2018-10-02T17:48:29.637Z,3.90
2018-10-02T17:50:59.274Z,1.20
2018-10-02T17:53:32.158Z,0.93
2018-10-02T17:56:03.096Z,1.27
2018-10-02T17:58:32.858Z,0.80
2018-10-02T18:01:02.246Z,1.37
2018-10-02T18:03:31.741Z,1.90
2018-10-02T18:06:01.630Z,1.00
2018-10-02T18:11:28.393Z,1.80
2018-10-02T18:13:58.380Z,1.73
2018-10-02T18:16:28.056Z,2.40
2018-10-02T18:18:57.957Z,1.10
2018-10-02T18:21:28.243Z,2.23
2018-10-02T18:23:58.181Z,1.00
2018-10-02T18:26:28.296Z,0.80
2018-10-02T18:28:57.879Z,1.40
2018-10-02T18:31:27.845Z,1.57
2018-10-02T18:36:55.423Z,2.17
2018-10-02T18:39:24.918Z,1.60
2018-10-02T18:41:55.373Z,1.27
2018-10-02T18:44:25.469Z,1.10
2018-10-02T18:46:54.999Z,1.43
2018-10-02T18:49:24.903Z,1.17
2018-10-02T18:51:54.497Z,1.20
2018-10-02T18:54:25.570Z,1.93
2018-10-02T19:00:09.636Z,1.90
2018-10-02T19:02:39.158Z,3.10
2018-10-02T19:05:09.543Z,1.20
2018-10-02T19:07:39.295Z,1.10
2018-10-02T19:10:09.544Z,2.30
2018-10-02T19:12:39.071Z,1.90
2018-10-02T19:15:11.874Z,0.60
2018-10-02T19:17:41.400Z,1.00
2018-10-02T19:20:17.567Z,1.23
2018-10-02T19:22:46.990Z,2.57
2018-10-02T19:25:22.339Z,2.83
2018-10-02T19:27:51.805Z,1.03
2018-10-02T19:30:27.003Z,0.63
2018-10-02T19:32:57.287Z,0.93
2018-10-02T19:35:27.414Z,2.43
2018-10-02T19:38:02.515Z,2.70
2018-10-02T19:40:32.219Z,1.43
2018-10-02T19:43:02.509Z,1.00
2018-10-02T19:45:37.091Z,1.17
2018-10-02T19:48:07.316Z,1.00
2018-10-02T19:50:37.437Z,1.50
2018-10-02T19:53:07.459Z,1.20
2018-10-02T19:55:36.759Z,0.93
2018-10-02T19:58:06.370Z,0.90
2018-10-02T20:00:36.019Z,1.87
2018-10-02T20:03:05.370Z,1.80
2018-10-02T20:05:34.738Z,1.40
2018-10-02T20:08:04.195Z,3.87
2018-10-02T20:10:33.676Z,1.57
2018-10-02T20:13:03.212Z,1.40
2018-10-02T20:15:32.677Z,1.03
2018-10-02T20:18:02.066Z,1.30
2018-10-02T20:20:31.535Z,0.83
2018-10-02T20:23:02.005Z,1.40
2018-10-02T20:25:31.754Z,2.03
2018-10-02T20:28:01.178Z,1.50
2018-10-02T20:30:33.213Z,2.23
2018-10-02T20:35:59.643Z,4.23
2018-10-02T20:38:30.022Z,1.47
2018-10-02T20:41:00.126Z,1.67
2018-10-02T20:43:29.537Z,1.00
2018-10-02T20:46:01.447Z,1.30
2018-10-02T20:48:31.079Z,0.90
2018-10-02T20:51:00.902Z,1.00
2018-10-02T20:53:30.294Z,1.20
2018-10-02T20:56:00.346Z,1.60
2018-10-02T21:01:27.611Z,1.13
2018-10-02T21:03:57.012Z,1.70
2018-10-02T21:06:26.685Z,1.10
2018-10-02T21:08:57.048Z,1.57
2018-10-02T21:11:27.022Z,0.90
2018-10-02T21:13:56.440Z,1.40
2018-10-02T21:16:25.884Z,0.87
2018-10-02T21:18:56.426Z,1.30
2018-10-02T21:21:26.746Z,2.00
2018-10-02T21:24:17.429Z,1.63
2018-10-02T21:26:47.346Z,3.07
2018-10-02T21:29:17.757Z,1.00
2018-10-02T21:31:48.016Z,0.80
2018-10-02T21:34:18.275Z,0.93
2018-10-02T21:36:49.982Z,3.03
2018-10-02T21:39:20.587Z,1.17
2018-10-02T21:41:50.029Z,0.53
2018-10-02T21:44:19.437Z,0.80
2018-10-02T21:47:01.141Z,1.40
2018-10-02T21:49:31.042Z,0.80
2018-10-02T21:52:01.907Z,1.00
2018-10-02T21:54:31.345Z,0.97
2018-10-02T21:57:01.041Z,1.20
2018-10-02T21:59:30.782Z,0.70
2018-10-02T22:02:00.174Z,0.70
2018-10-02T22:04:29.926Z,1.40
2018-10-02T22:06:59.322Z,1.00
2018-10-02T22:09:32.725Z,0.70
2018-10-02T22:12:02.187Z,1.40
2018-10-02T22:14:32.415Z,0.90
2018-10-02T22:17:02.419Z,1.20
2018-10-02T22:19:32.019Z,0.97
2018-10-02T22:22:01.994Z,1.30
2018-10-02T22:24:32.460Z,1.83
2018-10-02T22:27:03.277Z,1.80
2018-10-02T22:29:33.417Z,1.67
2018-10-02T22:32:03.638Z,1.20
2018-10-02T22:37:57.722Z,1.33
2018-10-02T22:40:27.202Z,0.97
2018-10-02T22:42:56.722Z,0.73
2018-10-02T22:45:26.305Z,0.80
2018-10-02T22:47:55.818Z,1.10
2018-10-02T22:50:26.114Z,1.17
2018-10-02T22:52:55.501Z,0.90
2018-10-02T22:55:24.965Z,2.57
2018-10-02T22:57:54.762Z,1.37
2018-10-02T23:00:24.826Z,1.00
2018-10-02T23:02:54.616Z,1.47
2018-10-02T23:05:24.147Z,1.43
2018-10-02T23:07:53.594Z,1.07
2018-10-02T23:10:23.091Z,2.27
2018-10-02T23:12:57.110Z,1.00
2018-10-02T23:15:27.497Z,0.93
2018-10-02T23:17:56.917Z,1.13
2018-10-02T23:20:26.350Z,0.93
2018-10-02T23:25:33.131Z,1.50
2018-10-02T23:28:03.031Z,1.53
2018-10-02T23:30:32.433Z,1.63
2018-10-02T23:33:01.890Z,1.17
2018-10-02T23:35:31.538Z,1.30
2018-10-02T23:38:00.879Z,3.63
2018-10-02T23:40:30.958Z,1.10
2018-10-02T23:43:01.366Z,1.33
2018-10-02T23:45:31.137Z,1.53
2018-10-02T23:50:58.706Z,1.00
2018-10-02T23:53:28.081Z,0.80
2018-10-02T23:55:58.453Z,1.20
2018-10-02T23:58:27.933Z,0.90
